createdAt,value
2019-04-21T00:00:35.526Z,66.35
2019-04-21T00:01:38.757Z,66.25
2019-04-21T00:02:37.744Z,65.58
2019-04-21T00:03:40.772Z,66.35
2019-04-21T00:04:48.446Z,67.40
2019-04-21T00:05:52.402Z,68.45
2019-04-21T00:06:56.971Z,68.45
2019-04-21T00:07:52.808Z,68.99
2019-04-21T00:08:56.474Z,67.55
2019-04-21T00:10:16.731Z,66.50
2019-04-21T00:10:56.713Z,67.84
2019-04-21T00:11:55.706Z,68.51
2019-04-21T00:12:53.337Z,68.41
2019-04-21T00:13:46.992Z,67.27
2019-04-21T00:14:46.073Z,68.13
2019-04-21T00:15:40.799Z,68.80
2019-04-21T00:16:43.223Z,68.51
2019-04-21T00:17:34.740Z,68.41
2019-04-21T00:18:41.778Z,69.66
2019-04-21T00:19:36.703Z,70.14
2019-04-21T00:20:40.910Z,69.47
2019-04-21T00:21:40.435Z,70.01
2019-04-21T00:22:45.487Z,70.48
2019-04-21T00:23:49.938Z,71.25
2019-04-21T00:24:46.218Z,70.77
2019-04-21T00:25:46.017Z,71.92
2019-04-21T00:26:50.808Z,71.53
2019-04-21T00:27:47.816Z,72.30
2019-04-21T00:29:02.276Z,72.58
2019-04-21T00:29:49.870Z,72.68
2019-04-21T00:30:50.927Z,72.07
2019-04-21T00:31:45.837Z,72.45
2019-04-21T00:32:46.040Z,73.22
2019-04-21T00:33:35.624Z,73.88
2019-04-21T00:34:32.141Z,73.88
2019-04-21T00:35:42.595Z,74.46
2019-04-21T00:36:42.850Z,74.46
2019-04-21T00:37:53.412Z,73.79
2019-04-21T00:39:00.411Z,74.27
2019-04-21T00:40:53.872Z,74.46
2019-04-21T00:41:53.736Z,75.03
2019-04-21T00:42:48.905Z,75.32
2019-04-21T00:43:44.764Z,75.22
2019-04-21T00:44:44.288Z,74.65
2019-04-21T00:45:41.809Z,75.28
2019-04-21T00:46:44.882Z,76.18
2019-04-21T00:47:46.308Z,76.23
2019-04-21T00:48:54.037Z,75.76
2019-04-21T00:49:52.715Z,76.23
2019-04-21T00:51:03.359Z,76.71
2019-04-21T00:52:17.519Z,75.57
2019-04-21T00:52:58.233Z,75.85
2019-04-21T00:53:51.149Z,76.71
2019-04-21T00:54:57.816Z,77.47
2019-04-21T00:55:53.443Z,77.47
2019-04-21T00:56:56.959Z,77.09
2019-04-21T00:58:56.085Z,77.95
2019-04-21T00:59:52.583Z,78.62
2019-04-21T01:00:51.128Z,78.14
2019-04-21T01:01:47.718Z,78.14
2019-04-21T01:03:55.120Z,77.95
2019-04-21T01:04:49.510Z,78.62
2019-04-21T01:05:52.864Z,78.33
2019-04-21T01:06:55.645Z,77.19
2019-04-21T01:07:46.990Z,78.23
2019-04-21T01:08:46.785Z,78.43
2019-04-21T01:09:45.330Z,78.14
2019-04-21T01:10:38.354Z,78.05
2019-04-21T01:11:51.462Z,77.67
2019-04-21T01:12:49.563Z,77.86
2019-04-21T01:13:51.749Z,78.14
2019-04-21T01:14:58.250Z,78.72
2019-04-21T01:16:56.051Z,78.14
2019-04-21T01:17:53.259Z,78.52
2019-04-21T01:18:51.871Z,78.91
2019-04-21T01:19:46.888Z,79.48
2019-04-21T01:20:27.576Z,79.86
2019-04-21T01:21:27.487Z,79.77
2019-04-21T01:22:27.450Z,80.05
2019-04-21T01:23:27.586Z,80.15
2019-04-21T01:24:33.061Z,80.01
2019-04-21T01:25:32.127Z,79.82
2019-04-21T01:26:39.320Z,79.91
2019-04-21T01:27:50.768Z,80.87
2019-04-21T01:28:44.838Z,81.06
2019-04-21T01:29:46.018Z,81.35
2019-04-21T01:30:45.143Z,81.44
2019-04-21T01:31:42.125Z,82.01
2019-04-21T01:32:48.174Z,82.30
2019-04-21T01:33:50.674Z,82.30
2019-04-21T01:34:45.422Z,82.49
2019-04-21T01:35:50.982Z,82.68
2019-04-21T01:36:45.797Z,82.97
2019-04-21T01:37:52.455Z,83.64
2019-04-21T01:38:48.304Z,83.12
2019-04-21T01:39:46.957Z,83.59
2019-04-21T01:40:45.050Z,83.78
2019-04-21T01:41:52.549Z,83.21
2019-04-21T01:42:49.425Z,83.50
2019-04-21T01:43:45.142Z,83.59
2019-04-21T01:44:46.206Z,83.97
2019-04-21T01:45:44.841Z,84.26
2019-04-21T01:46:42.251Z,83.78
2019-04-21T01:47:40.890Z,83.12
2019-04-21T01:48:40.017Z,82.73
2019-04-21T01:49:37.071Z,83.97
2019-04-21T01:50:40.908Z,84.07
2019-04-21T01:51:59.679Z,83.69
2019-04-21T01:52:50.236Z,83.12
2019-04-21T01:53:48.314Z,83.21
2019-04-21T01:54:48.112Z,83.31
2019-04-21T01:55:43.134Z,83.40
2019-04-21T01:56:46.557Z,83.88
2019-04-21T01:57:42.639Z,84.64
2019-04-21T01:58:36.317Z,84.55
2019-04-21T01:59:34.958Z,84.36
2019-04-21T02:00:39.020Z,84.07
2019-04-21T02:01:46.035Z,83.88
2019-04-21T02:02:47.698Z,84.07
2019-04-21T02:04:47.429Z,83.69
2019-04-21T02:05:56.991Z,83.88
2019-04-21T02:06:45.613Z,83.21
2019-04-21T02:07:47.448Z,83.59
2019-04-21T02:08:41.828Z,83.59
2019-04-21T02:09:42.003Z,83.21
2019-04-21T02:10:47.972Z,82.92
2019-04-21T02:11:53.354Z,82.64
2019-04-21T02:12:48.819Z,82.64
2019-04-21T02:13:50.209Z,82.54
2019-04-21T02:14:54.417Z,82.26
2019-04-21T02:15:48.935Z,81.73
2019-04-21T02:16:43.424Z,82.20
2019-04-21T02:17:45.896Z,82.01
2019-04-21T02:18:39.097Z,82.01
2019-04-21T02:19:37.824Z,82.01
2019-04-21T02:20:34.190Z,82.30
2019-04-21T02:21:38.288Z,82.20
2019-04-21T02:22:57.499Z,82.30
2019-04-21T02:23:50.925Z,82.20
2019-04-21T02:24:53.372Z,82.87
2019-04-21T02:25:44.193Z,82.59
2019-04-21T02:26:41.527Z,81.97
2019-04-21T02:27:42.874Z,82.26
2019-04-21T02:28:54.267Z,82.45
2019-04-21T02:29:49.761Z,82.45
2019-04-21T02:31:03.006Z,82.54
2019-04-21T02:32:00.360Z,82.07
2019-04-21T02:35:04.209Z,82.17
2019-04-21T02:39:00.271Z,82.64
2019-04-21T02:40:01.542Z,83.02
2019-04-21T02:42:01.747Z,83.12
2019-04-21T02:43:02.743Z,83.59
2019-04-21T02:43:56.083Z,83.69
2019-04-21T02:44:51.698Z,83.78
2019-04-21T02:46:54.261Z,83.69
2019-04-21T02:47:59.105Z,83.69
2019-04-21T02:48:56.440Z,84.07
2019-04-21T02:50:01.944Z,83.97
2019-04-21T02:51:04.750Z,83.50
2019-04-21T02:51:54.885Z,83.59
2019-04-21T02:54:28.787Z,83.69
2019-04-21T02:54:54.042Z,83.88
2019-04-21T02:55:51.220Z,83.50
2019-04-21T02:56:53.429Z,83.12
2019-04-21T02:57:49.795Z,82.83
2019-04-21T02:58:51.197Z,83.12
2019-04-21T03:00:06.894Z,83.02
2019-04-21T03:00:59.670Z,82.92
2019-04-21T03:02:04.494Z,82.73
2019-04-21T03:02:55.380Z,82.54
2019-04-21T03:04:53.364Z,83.02
2019-04-21T03:05:52.982Z,83.12
2019-04-21T03:06:56.363Z,83.78
2019-04-21T03:07:55.457Z,83.40
2019-04-21T03:09:45.936Z,83.97
2019-04-21T03:10:56.778Z,84.55
2019-04-21T03:12:01.508Z,83.97
2019-04-21T03:12:44.117Z,83.97
2019-04-21T03:14:58.183Z,84.64
2019-04-21T03:16:04.978Z,84.07
2019-04-21T03:16:40.577Z,84.26
2019-04-21T03:17:48.717Z,84.45
2019-04-21T03:18:52.502Z,84.45
2019-04-21T03:19:51.945Z,84.26
2019-04-21T03:20:53.252Z,83.88
2019-04-21T03:21:50.599Z,83.88
2019-04-21T03:23:16.634Z,83.69
2019-04-21T03:25:04.545Z,83.31
2019-04-21T03:29:08.375Z,83.02
2019-04-21T03:35:25.944Z,82.64
2019-04-21T03:36:24.603Z,82.35
2019-04-21T03:37:42.511Z,82.35
2019-04-21T03:38:43.137Z,82.35
2019-04-21T03:39:52.779Z,82.35
2019-04-21T03:40:40.959Z,82.54
2019-04-21T03:42:01.886Z,82.35
2019-04-21T03:43:52.632Z,82.64
2019-04-21T03:44:45.313Z,82.92
2019-04-21T03:46:47.524Z,82.89
2019-04-21T03:47:43.514Z,83.78
2019-04-21T03:48:51.692Z,83.84
2019-04-21T03:49:56.434Z,83.55
2019-04-21T03:50:56.317Z,84.03
2019-04-21T03:51:50.530Z,84.22
2019-04-21T03:52:58.895Z,84.69
2019-04-21T03:54:53.789Z,84.41
2019-04-21T03:56:59.200Z,84.69
2019-04-21T03:58:05.518Z,84.50
2019-04-21T03:59:48.897Z,85.51
2019-04-21T04:01:52.425Z,85.51
2019-04-21T04:02:55.238Z,85.32
2019-04-21T04:04:49.876Z,85.70
2019-04-21T04:05:59.659Z,86.18
2019-04-21T04:06:58.765Z,86.51
2019-04-21T04:07:49.949Z,86.27
2019-04-21T04:08:49.995Z,85.32
2019-04-21T04:09:44.757Z,85.99
2019-04-21T04:10:50.371Z,86.27
2019-04-21T04:11:44.187Z,85.99
2019-04-21T04:12:48.413Z,85.70
2019-04-21T04:13:56.313Z,85.55
2019-04-21T04:16:47.723Z,85.27
2019-04-21T04:17:40.460Z,84.88
2019-04-21T04:21:03.606Z,84.41
2019-04-21T04:21:47.756Z,84.31
2019-04-21T04:22:48.171Z,84.12
2019-04-21T04:23:45.622Z,84.26
2019-04-21T04:25:43.025Z,83.93
2019-04-21T04:27:01.519Z,83.74
2019-04-21T04:28:46.009Z,83.88
2019-04-21T04:29:39.929Z,83.31
2019-04-21T04:30:45.422Z,83.69
2019-04-21T04:31:53.454Z,83.40
2019-04-21T04:33:51.876Z,83.84
2019-04-21T04:35:52.541Z,84.22
2019-04-21T04:37:47.058Z,83.84
2019-04-21T04:38:50.146Z,83.84
2019-04-21T04:39:51.680Z,83.93
2019-04-21T04:40:39.298Z,83.59
2019-04-21T04:41:54.998Z,83.40
2019-04-21T04:42:46.228Z,82.92
2019-04-21T04:43:46.161Z,83.02
2019-04-21T04:45:44.193Z,82.45
2019-04-21T04:46:44.182Z,82.26
2019-04-21T04:47:47.055Z,82.54
2019-04-21T04:48:43.411Z,82.64
2019-04-21T04:52:09.415Z,83.21
2019-04-21T04:52:37.824Z,82.83
2019-04-21T04:55:39.302Z,82.54
2019-04-21T04:56:38.936Z,82.45
2019-04-21T04:57:51.268Z,82.64
2019-04-21T04:59:10.752Z,82.64
2019-04-21T05:00:01.176Z,82.35
2019-04-21T05:01:47.865Z,82.64
2019-04-21T05:02:46.331Z,82.54
2019-04-21T05:04:46.010Z,82.45
2019-04-21T05:05:45.110Z,82.64
2019-04-21T05:07:42.887Z,82.45
2019-04-21T05:08:52.453Z,82.26
2019-04-21T05:09:44.675Z,82.26
2019-04-21T05:10:52.888Z,81.97
2019-04-21T05:11:44.492Z,82.07
2019-04-21T05:13:43.520Z,81.88
2019-04-21T05:14:39.268Z,81.44
2019-04-21T05:15:37.726Z,81.88
2019-04-21T05:18:50.349Z,81.54
2019-04-21T05:19:34.726Z,81.63
2019-04-21T05:20:29.811Z,81.35
2019-04-21T05:22:37.501Z,81.35
2019-04-21T05:23:31.597Z,81.06
2019-04-21T05:24:25.571Z,80.68
2019-04-21T05:25:23.693Z,81.25
2019-04-21T05:26:22.010Z,81.25
2019-04-21T05:27:23.509Z,80.96
2019-04-21T05:28:19.832Z,80.68
2019-04-21T05:29:21.016Z,80.30
2019-04-21T05:31:33.044Z,80.01
2019-04-21T05:32:36.207Z,80.11
2019-04-21T05:33:32.175Z,80.49
2019-04-21T05:34:27.325Z,80.01
2019-04-21T05:35:26.360Z,79.82
2019-04-21T05:36:27.823Z,79.35
2019-04-21T05:37:25.927Z,79.67
2019-04-21T05:38:22.295Z,79.28
2019-04-21T05:39:23.395Z,78.91
2019-04-21T05:40:24.781Z,79.19
2019-04-21T05:41:18.428Z,79.10
2019-04-21T05:42:22.246Z,78.81
2019-04-21T05:43:28.419Z,78.81
2019-04-21T05:44:36.206Z,78.72
2019-04-21T05:45:38.192Z,78.62
2019-04-21T05:46:25.504Z,78.28
2019-04-21T05:47:35.404Z,78.18
2019-04-21T05:48:31.677Z,77.51
2019-04-21T05:49:22.251Z,77.51
2019-04-21T05:50:23.867Z,77.32
2019-04-21T05:51:28.732Z,77.42
2019-04-21T05:52:24.068Z,76.65
2019-04-21T05:53:34.372Z,76.84
2019-04-21T05:54:31.122Z,76.21
2019-04-21T05:55:34.206Z,76.31
2019-04-21T05:56:32.589Z,75.83
2019-04-21T05:57:25.405Z,75.45
2019-04-21T05:58:27.248Z,75.45
2019-04-21T05:59:26.252Z,75.10
2019-04-21T06:00:39.380Z,74.73
2019-04-21T06:01:36.020Z,74.63
2019-04-21T06:02:46.476Z,74.53
2019-04-21T06:03:43.080Z,73.67
2019-04-21T06:04:45.060Z,73.77
2019-04-21T06:06:34.190Z,72.66
2019-04-21T06:07:28.817Z,72.08
2019-04-21T06:08:28.649Z,71.99
2019-04-21T06:09:27.418Z,72.75
2019-04-21T06:10:31.459Z,71.93
2019-04-21T06:11:25.897Z,71.26
2019-04-21T06:12:31.591Z,71.73
2019-04-21T06:13:48.218Z,71.26
2019-04-21T06:14:30.486Z,71.45
2019-04-21T06:15:30.199Z,70.59
2019-04-21T06:16:31.865Z,70.72
2019-04-21T06:17:29.791Z,70.34
2019-04-21T06:18:22.395Z,70.34
2019-04-21T06:19:30.966Z,68.90
2019-04-21T06:20:27.093Z,69.19
2019-04-21T06:21:38.554Z,69.09
2019-04-21T06:22:36.033Z,69.86
2019-04-21T06:23:24.151Z,69.03
2019-04-21T06:24:21.539Z,67.79
2019-04-21T06:27:28.013Z,67.79
2019-04-21T06:28:28.270Z,67.69
2019-04-21T06:29:23.480Z,68.74
2019-04-21T06:30:29.003Z,68.17
2019-04-21T06:32:38.151Z,68.01
2019-04-21T06:33:32.245Z,68.07
2019-04-21T06:34:24.772Z,68.01
2019-04-21T06:35:35.993Z,67.82
2019-04-21T06:36:36.344Z,67.72
2019-04-21T06:37:39.714Z,67.63
2019-04-21T06:38:38.050Z,66.48
2019-04-21T06:39:22.998Z,66.86
2019-04-21T06:40:30.895Z,66.77
2019-04-21T06:42:23.924Z,66.99
2019-04-21T06:44:22.684Z,66.51
2019-04-21T06:45:31.325Z,66.51
2019-04-21T06:46:33.576Z,67.95
2019-04-21T06:47:32.442Z,66.89
2019-04-21T06:48:30.507Z,67.60
2019-04-21T06:49:23.911Z,67.02
2019-04-21T06:50:27.114Z,66.06
2019-04-21T06:51:27.950Z,66.26
2019-04-21T06:52:44.689Z,65.97
2019-04-21T06:53:36.231Z,65.91
2019-04-21T06:54:23.393Z,65.11
2019-04-21T06:56:20.501Z,65.43
2019-04-21T06:57:23.170Z,64.95
2019-04-21T06:58:22.440Z,65.62
2019-04-21T06:59:25.271Z,64.66
2019-04-21T07:00:19.530Z,64.98
2019-04-21T07:01:25.134Z,64.50
2019-04-21T07:02:39.908Z,63.92
2019-04-21T07:06:23.925Z,64.28
2019-04-21T07:07:26.389Z,62.35
2019-04-21T07:08:30.823Z,62.64
2019-04-21T07:10:22.771Z,62.00
2019-04-21T07:11:19.907Z,61.61
2019-04-21T07:12:19.160Z,61.61
2019-04-21T07:13:15.594Z,61.01
2019-04-21T07:14:37.974Z,61.49
2019-04-21T07:15:25.369Z,62.35
2019-04-21T07:16:25.443Z,61.97
2019-04-21T07:17:24.661Z,61.43
2019-04-21T07:18:25.310Z,61.61
2019-04-21T07:20:17.335Z,61.61
2019-04-21T07:21:23.532Z,60.08
2019-04-21T07:22:24.488Z,60.56
2019-04-21T07:23:24.045Z,60.56
2019-04-21T07:24:26.039Z,60.88
2019-04-21T07:25:23.876Z,60.88
2019-04-21T07:26:22.239Z,60.78
2019-04-21T07:27:22.228Z,59.82
2019-04-21T07:28:21.962Z,60.52
2019-04-21T07:29:21.957Z,60.62
2019-04-21T07:30:24.331Z,59.69
2019-04-21T07:31:19.001Z,60.65
2019-04-21T07:32:19.037Z,59.62
2019-04-21T07:33:41.522Z,58.47
2019-04-21T07:34:36.248Z,57.60
2019-04-21T07:35:28.118Z,57.12
2019-04-21T07:36:21.848Z,57.21
2019-04-21T07:37:17.367Z,57.79
2019-04-21T07:38:17.981Z,58.30
2019-04-21T07:39:18.519Z,57.14
2019-04-21T07:40:14.950Z,56.82
2019-04-21T07:41:09.670Z,55.38
2019-04-21T07:42:13.745Z,55.96
2019-04-21T07:43:10.777Z,56.54
2019-04-21T07:44:14.983Z,57.40
2019-04-21T07:45:13.088Z,56.22
2019-04-21T07:46:10.689Z,56.99
2019-04-21T07:47:17.079Z,57.09
2019-04-21T07:48:19.253Z,56.90
2019-04-21T07:49:12.456Z,57.47
2019-04-21T07:50:14.788Z,57.40
2019-04-21T07:51:18.874Z,55.77
2019-04-21T07:52:18.755Z,58.01
2019-04-21T07:53:21.854Z,58.23
2019-04-21T07:54:23.272Z,57.27
2019-04-21T07:56:06.511Z,54.40
2019-04-21T07:57:21.331Z,53.44
2019-04-21T07:58:17.823Z,55.18
2019-04-21T07:59:23.897Z,54.24
2019-04-21T08:01:19.933Z,54.14
2019-04-21T08:03:16.139Z,55.26
2019-04-21T08:04:33.177Z,54.77
2019-04-21T08:06:20.667Z,52.09
2019-04-21T08:07:26.514Z,51.61
2019-04-21T08:08:14.322Z,51.81
2019-04-21T08:09:13.650Z,51.64
2019-04-21T08:10:10.467Z,51.15
2019-04-21T08:11:10.885Z,49.70
2019-04-21T08:12:09.539Z,50.67
2019-04-21T08:13:27.347Z,50.38
2019-04-21T08:14:18.144Z,49.60
2019-04-21T08:15:24.957Z,50.67
2019-04-21T08:16:17.416Z,49.73
2019-04-21T08:17:14.757Z,48.27
2019-04-21T08:18:16.660Z,48.27
2019-04-21T08:19:13.091Z,49.44
2019-04-21T08:20:13.789Z,48.88
2019-04-21T08:21:17.820Z,47.60
2019-04-21T08:22:15.536Z,47.41
2019-04-21T08:23:13.270Z,47.79
2019-04-21T08:24:18.233Z,48.47
2019-04-21T08:25:18.244Z,48.47
2019-04-21T08:26:30.813Z,48.27
2019-04-21T08:27:18.880Z,48.01
2019-04-21T08:28:09.074Z,47.52
2019-04-21T08:29:21.456Z,46.56
2019-04-21T08:30:11.522Z,47.52
2019-04-21T08:31:18.422Z,48.22
2019-04-21T08:32:17.541Z,46.67
2019-04-21T08:33:26.246Z,46.09
2019-04-21T08:34:17.841Z,45.42
2019-04-21T08:35:38.427Z,44.74
2019-04-21T08:36:18.530Z,44.67
2019-04-21T08:37:11.990Z,44.27
2019-04-21T08:38:16.510Z,43.41
2019-04-21T08:39:14.020Z,45.05
2019-04-21T08:40:17.699Z,44.96
2019-04-21T08:41:15.211Z,46.31
2019-04-21T08:42:13.206Z,46.02
2019-04-21T08:43:09.227Z,45.83
2019-04-21T08:44:10.651Z,45.75
2019-04-21T08:45:15.057Z,45.17
2019-04-21T08:46:13.735Z,44.30
2019-04-21T08:47:12.854Z,43.33
2019-04-21T08:48:12.149Z,43.82
2019-04-21T08:49:08.117Z,44.30
2019-04-21T08:50:11.245Z,46.75
2019-04-21T08:51:24.515Z,44.71
2019-04-21T08:52:23.289Z,43.82
2019-04-21T08:53:19.840Z,42.96
2019-04-21T08:54:17.015Z,41.51
2019-04-21T08:55:12.232Z,41.61
2019-04-21T08:56:34.204Z,41.61
2019-04-21T08:57:16.693Z,41.02
2019-04-21T08:58:22.643Z,41.31
2019-04-21T09:00:16.799Z,43.27
2019-04-21T09:01:17.785Z,41.82
2019-04-21T09:02:08.430Z,40.26
2019-04-21T09:03:14.617Z,40.46
2019-04-21T09:04:19.877Z,40.36
2019-04-21T09:05:11.600Z,41.12
2019-04-21T09:06:19.027Z,41.12
2019-04-21T09:07:12.951Z,41.70
2019-04-21T09:08:10.572Z,41.41
2019-04-21T09:09:14.365Z,42.77
2019-04-21T09:10:09.453Z,40.61
2019-04-21T09:11:06.949Z,41.61
2019-04-21T09:12:10.915Z,41.51
2019-04-21T09:13:07.437Z,42.89
2019-04-21T09:14:07.060Z,41.74
2019-04-21T09:15:08.390Z,42.71
2019-04-21T09:16:06.561Z,40.48
2019-04-21T09:17:01.676Z,40.19
2019-04-21T09:18:04.858Z,43.01
2019-04-21T09:19:04.468Z,40.17
2019-04-21T09:20:13.469Z,41.14
2019-04-21T09:21:11.343Z,41.70
2019-04-21T09:22:07.038Z,40.25
2019-04-21T09:23:06.724Z,39.94
2019-04-21T09:24:11.604Z,40.44
2019-04-21T09:25:17.304Z,38.48
2019-04-21T09:26:07.353Z,39.11
2019-04-21T09:27:07.110Z,40.23
2019-04-21T09:28:08.858Z,41.89
2019-04-21T09:29:03.426Z,42.78
2019-04-21T09:29:54.015Z,41.64
2019-04-21T09:30:57.294Z,42.82
2019-04-21T09:31:51.715Z,40.40
2019-04-21T09:32:53.039Z,40.28
2019-04-21T09:33:51.983Z,41.56
2019-04-21T09:34:50.669Z,40.52
2019-04-21T09:35:54.606Z,40.54
2019-04-21T09:36:53.131Z,39.98
2019-04-21T09:37:55.286Z,40.39
2019-04-21T09:38:58.690Z,39.12
2019-04-21T09:39:52.106Z,39.22
2019-04-21T09:40:51.359Z,37.88
2019-04-21T09:41:49.883Z,38.17
2019-04-21T09:42:56.893Z,36.73
2019-04-21T09:43:52.136Z,36.71
2019-04-21T09:44:53.346Z,36.81
2019-04-21T09:45:49.364Z,37.59
2019-04-21T09:46:54.008Z,35.82
2019-04-21T09:47:57.189Z,36.00
2019-04-21T09:48:55.417Z,37.94
2019-04-21T09:49:47.762Z,36.56
2019-04-21T09:50:48.041Z,37.94
2019-04-21T09:51:48.279Z,40.17
2019-04-21T09:52:54.757Z,40.50
2019-04-21T09:53:56.494Z,38.77
2019-04-21T09:54:56.610Z,38.39
2019-04-21T09:55:54.207Z,35.74
2019-04-21T09:56:57.133Z,35.94
2019-04-21T09:57:53.562Z,35.84
2019-04-21T09:58:51.686Z,36.91
2019-04-21T09:59:57.080Z,38.57
2019-04-21T10:01:00.043Z,36.69
2019-04-21T10:01:59.179Z,36.99
2019-04-21T10:02:56.784Z,36.40
2019-04-21T10:03:51.056Z,35.98
2019-04-21T10:04:48.187Z,36.83
2019-04-21T10:05:47.576Z,37.71
2019-04-21T10:06:47.614Z,36.85
2019-04-21T10:07:46.600Z,36.36
2019-04-21T10:08:50.371Z,37.74
2019-04-21T10:09:47.777Z,37.16
2019-04-21T10:10:46.855Z,37.47
2019-04-21T10:11:46.339Z,36.60
2019-04-21T10:12:47.685Z,35.61
2019-04-21T10:13:46.357Z,36.19
2019-04-21T10:14:47.272Z,35.49
2019-04-21T10:15:46.306Z,36.18
2019-04-21T10:16:46.017Z,35.67
2019-04-21T10:17:47.346Z,36.76
2019-04-21T10:18:46.126Z,36.27
2019-04-21T10:19:46.365Z,36.77
2019-04-21T10:20:46.903Z,35.13
2019-04-21T10:21:46.589Z,35.72
2019-04-21T10:22:46.770Z,35.45
2019-04-21T10:23:45.755Z,34.83
2019-04-21T10:24:46.623Z,36.19
2019-04-21T10:25:46.367Z,36.10
2019-04-21T10:26:53.468Z,34.62
2019-04-21T10:27:45.437Z,36.77
2019-04-21T10:28:46.774Z,37.08
2019-04-21T10:29:46.775Z,35.33
2019-04-21T10:30:45.123Z,35.92
2019-04-21T10:31:45.114Z,36.60
2019-04-21T10:32:46.040Z,36.61
2019-04-21T10:33:46.169Z,36.04
2019-04-21T10:34:52.836Z,34.54
2019-04-21T10:35:44.781Z,35.24
2019-04-21T10:36:44.905Z,34.66
2019-04-21T10:37:56.345Z,34.83
2019-04-21T10:38:48.730Z,36.60
2019-04-21T10:39:45.351Z,34.35
2019-04-21T10:40:45.558Z,35.92
2019-04-21T10:41:45.688Z,35.43
2019-04-21T10:42:44.312Z,35.32
2019-04-21T10:43:45.178Z,35.71
2019-04-21T10:44:45.197Z,35.49
2019-04-21T10:45:44.216Z,35.28
2019-04-21T10:46:46.691Z,36.76
2019-04-21T10:47:45.010Z,36.68
2019-04-21T10:48:43.911Z,35.61
2019-04-21T10:49:50.868Z,35.71
2019-04-21T10:50:45.195Z,35.32
2019-04-21T10:51:43.814Z,35.32
2019-04-21T10:52:44.817Z,34.23
2019-04-21T10:53:45.249Z,35.32
2019-04-21T10:55:10.100Z,37.18
2019-04-21T10:55:56.681Z,39.24
2019-04-21T10:56:44.444Z,35.43
2019-04-21T10:57:44.306Z,35.43
2019-04-21T10:58:44.490Z,33.86
2019-04-21T10:59:48.814Z,36.11
2019-04-21T11:00:43.991Z,35.55
2019-04-21T11:01:43.163Z,33.11
2019-04-21T11:02:43.353Z,33.98
2019-04-21T11:03:44.902Z,35.72
2019-04-21T11:04:51.104Z,35.13
2019-04-21T11:05:42.936Z,35.32
2019-04-21T11:06:42.723Z,37.28
2019-04-21T11:07:58.941Z,36.42
2019-04-21T11:08:45.711Z,35.16
2019-04-21T11:09:42.605Z,35.06
2019-04-21T11:10:43.705Z,32.62
2019-04-21T11:11:51.585Z,33.11
2019-04-21T11:12:43.164Z,31.74
2019-04-21T11:13:42.263Z,32.60
2019-04-21T11:14:43.107Z,31.52
2019-04-21T11:15:43.156Z,32.87
2019-04-21T11:16:43.346Z,33.86
2019-04-21T11:17:43.519Z,33.18
2019-04-21T11:18:42.208Z,33.36
2019-04-21T11:19:43.136Z,33.36
2019-04-21T11:20:42.782Z,33.65
2019-04-21T11:21:42.897Z,33.36
2019-04-21T11:22:41.756Z,34.91
2019-04-21T11:23:41.596Z,33.75
2019-04-21T11:24:42.911Z,32.29
2019-04-21T11:25:42.166Z,33.73
2019-04-21T11:26:42.199Z,34.14
2019-04-21T11:27:44.838Z,35.41
2019-04-21T11:28:41.273Z,33.38
2019-04-21T11:29:41.521Z,36.02
2019-04-21T11:30:42.345Z,34.27
2019-04-21T11:31:41.122Z,34.01
2019-04-21T11:32:43.094Z,32.94
2019-04-21T11:33:41.034Z,32.96
2019-04-21T11:34:41.106Z,32.67
2019-04-21T11:35:41.362Z,33.14
2019-04-21T11:36:40.745Z,31.85
2019-04-21T11:37:42.048Z,31.65
2019-04-21T11:38:57.117Z,32.05
2019-04-21T11:39:51.219Z,31.55
2019-04-21T11:40:40.488Z,33.49
2019-04-21T11:41:41.549Z,31.18
2019-04-21T11:42:41.754Z,29.90
2019-04-21T11:43:41.321Z,32.13
2019-04-21T11:44:41.585Z,34.09
2019-04-21T11:45:40.271Z,32.54
2019-04-21T11:46:40.380Z,31.77
2019-04-21T11:47:40.672Z,31.37
2019-04-21T11:48:40.076Z,34.20
2019-04-21T11:49:41.079Z,33.43
2019-04-21T11:50:41.244Z,33.83
2019-04-21T11:51:40.773Z,32.35
2019-04-21T11:52:40.854Z,32.18
2019-04-21T11:53:40.999Z,31.90
2019-04-21T11:54:40.650Z,30.05
2019-04-21T11:55:43.605Z,33.28
2019-04-21T11:56:39.417Z,29.49
2019-04-21T11:57:42.783Z,29.49
2019-04-21T11:58:39.546Z,29.21
2019-04-21T11:59:39.646Z,29.89
2019-04-21T12:00:39.927Z,31.25
2019-04-21T12:01:39.439Z,30.18
2019-04-21T12:02:39.563Z,31.76
2019-04-21T12:03:39.970Z,31.46
2019-04-21T12:04:39.271Z,30.39
2019-04-21T12:05:41.830Z,28.22
2019-04-21T12:06:44.433Z,28.42
2019-04-21T12:07:38.703Z,29.29
2019-04-21T12:08:43.972Z,27.92
2019-04-21T12:09:39.577Z,28.08
2019-04-21T12:10:41.831Z,29.14
2019-04-21T12:11:41.032Z,29.15
2019-04-21T12:12:39.260Z,29.15
2019-04-21T12:13:38.330Z,29.25
2019-04-21T12:14:39.593Z,29.06
2019-04-21T12:15:38.926Z,29.25
2019-04-21T12:16:39.154Z,30.14
2019-04-21T12:17:39.439Z,27.50
2019-04-21T12:18:38.806Z,28.66
2019-04-21T12:19:38.767Z,28.39
2019-04-21T12:20:37.865Z,28.09
2019-04-21T12:21:50.532Z,27.12
2019-04-21T12:22:38.983Z,29.75
2019-04-21T12:23:38.479Z,29.97
2019-04-21T12:24:38.133Z,29.89
2019-04-21T12:25:38.926Z,28.23
2019-04-21T12:26:37.947Z,28.03
2019-04-21T12:27:38.030Z,29.29
2019-04-21T12:28:37.614Z,29.00
2019-04-21T12:29:37.791Z,29.40
2019-04-21T12:30:37.763Z,31.06
2019-04-21T12:31:37.158Z,28.61
2019-04-21T12:32:38.128Z,28.53
2019-04-21T12:33:38.136Z,29.02
2019-04-21T12:34:36.958Z,28.42
2019-04-21T12:35:37.747Z,29.00
2019-04-21T12:36:38.026Z,28.49
2019-04-21T12:37:37.149Z,28.69
2019-04-21T12:38:43.689Z,28.49
2019-04-21T12:39:36.927Z,29.26
2019-04-21T12:40:36.775Z,29.66
2019-04-21T12:41:36.521Z,32.02
2019-04-21T12:42:38.851Z,30.26
2019-04-21T12:43:36.965Z,27.73
2019-04-21T12:44:37.178Z,29.02
2019-04-21T12:45:36.250Z,29.22
2019-04-21T12:46:36.195Z,29.71
2019-04-21T12:47:36.120Z,29.81
2019-04-21T12:48:36.042Z,28.93
2019-04-21T12:49:36.004Z,30.29
2019-04-21T12:50:36.053Z,29.13
2019-04-21T12:51:36.012Z,29.32
2019-04-21T12:52:36.003Z,31.27
2019-04-21T12:53:35.974Z,29.81
2019-04-21T12:54:35.883Z,28.92
2019-04-21T12:55:40.614Z,30.47
2019-04-21T12:56:35.746Z,31.07
2019-04-21T12:57:35.469Z,29.30
2019-04-21T12:58:35.407Z,28.90
2019-04-21T12:59:36.331Z,29.30
2019-04-21T13:00:36.672Z,28.92
2019-04-21T13:01:35.230Z,28.25
2019-04-21T13:02:35.824Z,29.71
2019-04-21T13:03:35.072Z,30.29
2019-04-21T13:04:35.784Z,30.51
2019-04-21T13:05:35.787Z,29.52
2019-04-21T13:06:34.892Z,30.11
2019-04-21T13:07:35.422Z,29.04
2019-04-21T13:08:45.634Z,28.45
2019-04-21T13:09:36.128Z,28.23
2019-04-21T13:10:35.943Z,29.78
2019-04-21T13:11:35.073Z,29.78
2019-04-21T13:12:35.274Z,30.07
2019-04-21T13:13:35.627Z,31.24
2019-04-21T13:14:35.761Z,30.24
2019-04-21T13:15:35.496Z,30.22
2019-04-21T13:16:34.250Z,30.62
2019-04-21T13:17:35.297Z,30.22
2019-04-21T13:18:35.071Z,32.08
2019-04-21T13:19:34.033Z,31.11
2019-04-21T13:20:34.216Z,31.79
2019-04-21T13:21:34.263Z,31.32
2019-04-21T13:22:34.190Z,32.31
2019-04-21T13:23:34.977Z,31.25
2019-04-21T13:24:33.756Z,31.07
2019-04-21T13:25:33.914Z,29.22
2019-04-21T13:26:42.930Z,28.64
2019-04-21T13:27:34.577Z,28.94
2019-04-21T13:28:34.562Z,30.03
2019-04-21T13:29:34.451Z,30.13
2019-04-21T13:30:33.301Z,29.93
2019-04-21T13:31:34.211Z,31.22
2019-04-21T13:32:33.314Z,31.22
2019-04-21T13:33:33.649Z,30.44
2019-04-21T13:34:33.791Z,30.22
2019-04-21T13:35:33.240Z,28.93
2019-04-21T13:36:33.775Z,29.42
2019-04-21T13:37:33.284Z,28.92
2019-04-21T13:38:37.766Z,31.54
2019-04-21T13:39:57.119Z,30.67
2019-04-21T13:40:49.998Z,30.28
2019-04-21T13:41:47.363Z,30.49
2019-04-21T13:42:40.231Z,30.98
2019-04-21T13:43:32.971Z,30.98
2019-04-21T13:44:33.083Z,30.00
2019-04-21T13:45:32.330Z,31.46
2019-04-21T13:46:32.266Z,30.49
2019-04-21T13:47:32.490Z,30.49
2019-04-21T13:48:32.748Z,29.99
2019-04-21T13:49:32.082Z,30.57
2019-04-21T13:50:33.215Z,33.59
2019-04-21T13:51:31.946Z,32.11
2019-04-21T13:52:33.173Z,31.24
2019-04-21T13:53:33.095Z,32.02
2019-04-21T13:54:31.730Z,31.92
2019-04-21T13:55:31.929Z,32.40
2019-04-21T13:56:32.337Z,32.02
2019-04-21T13:57:32.495Z,31.53
2019-04-21T13:58:32.650Z,31.82
2019-04-21T13:59:31.940Z,31.24
2019-04-21T14:00:31.795Z,31.24
2019-04-21T14:01:31.796Z,30.55
2019-04-21T14:02:31.205Z,30.64
2019-04-21T14:03:31.407Z,31.03